sensor_id;sensor_type;location;lat;lon;timestamp;pressure;altitude;pressure_sealevel;temperature;humidity
59767;BME280;46248;58.364;25.582;2023-07-13T00:02:07;100107.03;;;12.16;79.95
59767;BME280;46248;58.364;25.582;2023-07-13T00:05:31;100109.13;;;12.11;80.34
59767;BME280;46248;58.364;25.582;2023-07-13T00:08:53;100091.88;;;12.07;79.59
59767;BME280;46248;58.364;25.582;2023-07-13T00:12:26;100075.88;;;11.97;81.07
59767;BME280;46248;58.364;25.582;2023-07-13T00:15:49;100093.59;;;12.08;80.63
59767;BME280;46248;58.364;25.582;2023-07-13T00:19:11;100085.16;;;12.03;81.83
59767;BME280;46248;58.364;25.582;2023-07-13T00:22:35;100080.03;;;12.01;82.10
59767;BME280;46248;58.364;25.582;2023-07-13T00:25:57;100081.97;;;11.98;81.90
59767;BME280;46248;58.364;25.582;2023-07-13T00:29:19;100065.72;;;11.93;81.97
59767;BME280;46248;58.364;25.582;2023-07-13T00:32:41;100061.56;;;11.88;82.58
59767;BME280;46248;58.364;25.582;2023-07-13T00:36:04;100055.00;;;11.81;82.16
59767;BME280;46248;58.364;25.582;2023-07-13T00:39:27;100057.63;;;11.81;82.24
59767;BME280;46248;58.364;25.582;2023-07-13T00:42:51;100054.44;;;11.76;82.71
59767;BME280;46248;58.364;25.582;2023-07-13T00:46:21;100055.16;;;11.65;85.44
59767;BME280;46248;58.364;25.582;2023-07-13T00:49:43;100049.44;;;11.59;84.07
59767;BME280;46248;58.364;25.582;2023-07-13T00:53:04;100047.88;;;11.56;83.24
59767;BME280;46248;58.364;25.582;2023-07-13T00:56:28;100043.47;;;11.57;83.50
59767;BME280;46248;58.364;25.582;2023-07-13T00:59:54;100044.38;;;11.56;83.61
59767;BME280;46248;58.364;25.582;2023-07-13T01:03:17;100039.44;;;11.51;83.29
59767;BME280;46248;58.364;25.582;2023-07-13T01:06:40;100044.56;;;11.53;81.61
59767;BME280;46248;58.364;25.582;2023-07-13T01:10:05;100048.97;;;11.52;81.41
59767;BME280;46248;58.364;25.582;2023-07-13T01:13:28;100036.91;;;11.50;81.80
59767;BME280;46248;58.364;25.582;2023-07-13T01:16:50;100023.44;;;11.41;81.55
59767;BME280;46248;58.364;25.582;2023-07-13T01:20:12;100031.13;;;11.44;82.63
59767;BME280;46248;58.364;25.582;2023-07-13T01:23:36;100029.22;;;11.46;83.32
59767;BME280;46248;58.364;25.582;2023-07-13T01:26:58;100017.38;;;11.41;83.45
59767;BME280;46248;58.364;25.582;2023-07-13T01:30:19;100030.38;;;11.42;83.51
59767;BME280;46248;58.364;25.582;2023-07-13T01:33:42;100026.06;;;11.41;84.56
59767;BME280;46248;58.364;25.582;2023-07-13T01:37:04;100024.75;;;11.34;84.27
59767;BME280;46248;58.364;25.582;2023-07-13T01:40:28;100020.38;;;11.35;83.88
59767;BME280;46248;58.364;25.582;2023-07-13T01:43:51;100015.22;;;11.33;83.05
59767;BME280;46248;58.364;25.582;2023-07-13T01:47:12;99991.34;;;11.23;82.57
59767;BME280;46248;58.364;25.582;2023-07-13T01:50:34;100002.09;;;11.33;83.79
59767;BME280;46248;58.364;25.582;2023-07-13T01:53:56;100007.34;;;11.33;83.72
59767;BME280;46248;58.364;25.582;2023-07-13T01:57:20;100016.63;;;11.39;84.69
59767;BME280;46248;58.364;25.582;2023-07-13T02:00:42;100008.09;;;11.35;84.49
59767;BME280;46248;58.364;25.582;2023-07-13T02:04:04;100011.94;;;11.44;85.33
59767;BME280;46248;58.364;25.582;2023-07-13T02:07:26;100009.94;;;11.48;85.84
59767;BME280;46248;58.364;25.582;2023-07-13T02:10:48;99999.34;;;11.49;85.26
59767;BME280;46248;58.364;25.582;2023-07-13T02:14:11;100009.44;;;11.55;85.62
59767;BME280;46248;58.364;25.582;2023-07-13T02:17:34;100005.78;;;11.58;84.96
59767;BME280;46248;58.364;25.582;2023-07-13T02:20:56;100003.75;;;11.63;85.42
59767;BME280;46248;58.364;25.582;2023-07-13T02:24:18;100002.50;;;11.68;85.10
59767;BME280;46248;58.364;25.582;2023-07-13T02:27:41;99998.84;;;11.71;84.90
59767;BME280;46248;58.364;25.582;2023-07-13T02:31:10;100000.81;;;11.67;85.21
59767;BME280;46248;58.364;25.582;2023-07-13T02:34:33;99999.38;;;11.76;84.44
59767;BME280;46248;58.364;25.582;2023-07-13T02:37:54;99989.63;;;11.78;84.43
59767;BME280;46248;58.364;25.582;2023-07-13T02:41:16;99995.91;;;11.90;83.91
59767;BME280;46248;58.364;25.582;2023-07-13T02:44:38;99994.66;;;11.96;83.65
59767;BME280;46248;58.364;25.582;2023-07-13T02:48:02;99986.03;;;11.94;83.95
59767;BME280;46248;58.364;25.582;2023-07-13T02:51:24;99984.50;;;12.04;83.75
59767;BME280;46248;58.364;25.582;2023-07-13T02:54:46;99986.81;;;12.08;83.62
59767;BME280;46248;58.364;25.582;2023-07-13T02:58:07;99976.66;;;12.17;83.32
59767;BME280;46248;58.364;25.582;2023-07-13T03:01:30;99978.69;;;12.26;83.61
59767;BME280;46248;58.364;25.582;2023-07-13T03:04:57;99974.91;;;12.30;83.92
59767;BME280;46248;58.364;25.582;2023-07-13T03:08:19;99979.09;;;12.32;83.58
59767;BME280;46248;58.364;25.582;2023-07-13T03:11:41;99967.34;;;12.38;83.69
59767;BME280;46248;58.364;25.582;2023-07-13T03:15:03;99970.81;;;12.51;83.50
59767;BME280;46248;58.364;25.582;2023-07-13T03:18:26;99960.63;;;12.72;83.05
59767;BME280;46248;58.364;25.582;2023-07-13T03:21:49;99959.03;;;12.95;83.02
59767;BME280;46248;58.364;25.582;2023-07-13T03:25:11;99963.53;;;13.32;81.83
59767;BME280;46248;58.364;25.582;2023-07-13T03:28:33;99959.34;;;13.53;81.25
59767;BME280;46248;58.364;25.582;2023-07-13T03:31:55;99956.94;;;13.74;81.27
59767;BME280;46248;58.364;25.582;2023-07-13T03:35:17;99960.25;;;13.89;81.15
59767;BME280;46248;58.364;25.582;2023-07-13T03:38:40;99954.31;;;14.09;80.57
59767;BME280;46248;58.364;25.582;2023-07-13T03:42:05;99948.63;;;14.27;80.08
59767;BME280;46248;58.364;25.582;2023-07-13T03:45:27;99942.44;;;14.50;79.19
59767;BME280;46248;58.364;25.582;2023-07-13T03:48:49;99949.91;;;14.79;78.71
59767;BME280;46248;58.364;25.582;2023-07-13T03:52:11;99955.91;;;15.15;77.99
59767;BME280;46248;58.364;25.582;2023-07-13T03:55:35;99945.19;;;15.50;76.37
59767;BME280;46248;58.364;25.582;2023-07-13T03:58:57;99944.38;;;15.82;74.76
59767;BME280;46248;58.364;25.582;2023-07-13T04:02:20;99949.69;;;16.23;73.42
59767;BME280;46248;58.364;25.582;2023-07-13T04:05:42;99940.75;;;16.66;72.24
59767;BME280;46248;58.364;25.582;2023-07-13T04:09:03;99937.91;;;17.10;70.91
59767;BME280;46248;58.364;25.582;2023-07-13T04:12:28;99950.25;;;17.40;69.68
59767;BME280;46248;58.364;25.582;2023-07-13T04:15:51;99953.63;;;17.71;68.78
59767;BME280;46248;58.364;25.582;2023-07-13T04:19:13;99947.69;;;17.89;67.11
59767;BME280;46248;58.364;25.582;2023-07-13T04:22:35;99955.06;;;18.14;65.86
59767;BME280;46248;58.364;25.582;2023-07-13T04:25:57;99947.09;;;18.34;64.79
59767;BME280;46248;58.364;25.582;2023-07-13T04:29:20;99943.88;;;18.40;63.90
59767;BME280;46248;58.364;25.582;2023-07-13T04:32:42;99946.59;;;18.58;62.73
59767;BME280;46248;58.364;25.582;2023-07-13T04:36:04;99953.13;;;18.63;61.46
59767;BME280;46248;58.364;25.582;2023-07-13T04:39:26;99954.25;;;18.70;60.60
59767;BME280;46248;58.364;25.582;2023-07-13T04:42:48;99946.28;;;18.80;60.43
59767;BME280;46248;58.364;25.582;2023-07-13T04:46:12;99946.94;;;18.92;60.06
59767;BME280;46248;58.364;25.582;2023-07-13T04:49:35;99949.78;;;19.08;59.26
59767;BME280;46248;58.364;25.582;2023-07-13T04:52:57;99960.75;;;19.23;58.16
59767;BME280;46248;58.364;25.582;2023-07-13T04:56:19;99959.72;;;19.34;57.53
59767;BME280;46248;58.364;25.582;2023-07-13T04:59:41;99954.66;;;19.40;56.41
59767;BME280;46248;58.364;25.582;2023-07-13T05:03:05;99962.53;;;19.50;56.62
59767;BME280;46248;58.364;25.582;2023-07-13T05:06:27;99967.38;;;19.64;56.03
59767;BME280;46248;58.364;25.582;2023-07-13T05:09:49;99966.00;;;19.78;55.26
59767;BME280;46248;58.364;25.582;2023-07-13T05:13:11;99962.59;;;19.86;55.41
59767;BME280;46248;58.364;25.582;2023-07-13T05:16:32;99961.81;;;19.94;55.53
59767;BME280;46248;58.364;25.582;2023-07-13T05:19:56;99966.81;;;20.14;55.98
59767;BME280;46248;58.364;25.582;2023-07-13T05:23:18;99959.03;;;20.13;54.04
59767;BME280;46248;58.364;25.582;2023-07-13T05:26:39;99965.25;;;20.22;55.87
59767;BME280;46248;58.364;25.582;2023-07-13T05:30:02;99968.19;;;20.36;55.74
59767;BME280;46248;58.364;25.582;2023-07-13T05:33:25;99960.72;;;20.40;55.68
59767;BME280;46248;58.364;25.582;2023-07-13T05:36:48;99962.06;;;20.44;55.89
59767;BME280;46248;58.364;25.582;2023-07-13T05:40:11;99965.09;;;20.67;55.41
59767;BME280;46248;58.364;25.582;2023-07-13T05:43:33;99949.72;;;20.87;54.91
59767;BME280;46248;58.364;25.582;2023-07-13T05:46:55;99958.66;;;21.12;54.16
59767;BME280;46248;58.364;25.582;2023-07-13T05:50:17;99961.44;;;21.37;52.84
59767;BME280;46248;58.364;25.582;2023-07-13T05:53:41;99952.16;;;21.57;51.62
59767;BME280;46248;58.364;25.582;2023-07-13T05:57:03;99945.84;;;21.75;51.68
59767;BME280;46248;58.364;25.582;2023-07-13T06:00:25;99956.38;;;21.92;51.11
59767;BME280;46248;58.364;25.582;2023-07-13T06:03:47;99945.22;;;21.97;51.08
59767;BME280;46248;58.364;25.582;2023-07-13T06:07:08;99946.72;;;22.16;51.27
59767;BME280;46248;58.364;25.582;2023-07-13T06:10:33;99954.88;;;22.39;50.47
59767;BME280;46248;58.364;25.582;2023-07-13T06:13:56;99947.34;;;22.51;50.51
59767;BME280;46248;58.364;25.582;2023-07-13T06:17:18;99946.19;;;22.61;50.79
59767;BME280;46248;58.364;25.582;2023-07-13T06:20:39;99950.50;;;22.62;50.90
59767;BME280;46248;58.364;25.582;2023-07-13T06:24:01;99949.50;;;22.63;51.49
59767;BME280;46248;58.364;25.582;2023-07-13T06:27:24;99949.19;;;22.67;50.62
59767;BME280;46248;58.364;25.582;2023-07-13T06:30:50;99952.34;;;22.70;51.85
59767;BME280;46248;58.364;25.582;2023-07-13T06:34:12;99955.25;;;22.92;50.68
59767;BME280;46248;58.364;25.582;2023-07-13T06:37:33;99940.44;;;22.81;50.24
59767;BME280;46248;58.364;25.582;2023-07-13T06:40:55;99914.41;;;22.83;50.87
59767;BME280;46248;58.364;25.582;2023-07-13T06:44:19;99923.50;;;23.13;50.03
59767;BME280;46248;58.364;25.582;2023-07-13T06:47:41;99921.88;;;23.35;49.68
59767;BME280;46248;58.364;25.582;2023-07-13T06:51:03;99915.22;;;23.54;48.80
59767;BME280;46248;58.364;25.582;2023-07-13T06:54:25;99908.16;;;23.69;48.58
59767;BME280;46248;58.364;25.582;2023-07-13T06:57:47;99903.16;;;23.66;48.50
59767;BME280;46248;58.364;25.582;2023-07-13T07:01:10;99920.53;;;23.62;48.93
59767;BME280;46248;58.364;25.582;2023-07-13T07:04:32;99928.34;;;23.72;49.16
59767;BME280;46248;58.364;25.582;2023-07-13T07:07:54;99924.72;;;23.88;48.94
59767;BME280;46248;58.364;25.582;2023-07-13T07:11:22;99927.31;;;23.96;48.31
59767;BME280;46248;58.364;25.582;2023-07-13T07:14:44;99927.63;;;24.01;48.89
59767;BME280;46248;58.364;25.582;2023-07-13T07:18:08;99920.44;;;24.02;48.97
59767;BME280;46248;58.364;25.582;2023-07-13T07:21:30;99923.94;;;24.02;48.55
59767;BME280;46248;58.364;25.582;2023-07-13T07:24:51;99933.19;;;24.14;47.50
59767;BME280;46248;58.364;25.582;2023-07-13T07:28:15;99924.44;;;24.20;47.96
59767;BME280;46248;58.364;25.582;2023-07-13T07:31:41;99926.47;;;24.18;48.13
59767;BME280;46248;58.364;25.582;2023-07-13T07:35:08;99924.47;;;24.35;47.81
59767;BME280;46248;58.364;25.582;2023-07-13T07:38:29;99923.97;;;24.55;47.25
59767;BME280;46248;58.364;25.582;2023-07-13T07:41:51;99930.69;;;24.65;47.65
59767;BME280;46248;58.364;25.582;2023-07-13T07:45:16;99928.69;;;24.67;46.92
59767;BME280;46248;58.364;25.582;2023-07-13T07:48:38;99925.44;;;24.57;47.79
59767;BME280;46248;58.364;25.582;2023-07-13T07:52:01;99929.22;;;24.63;48.29
59767;BME280;46248;58.364;25.582;2023-07-13T07:55:24;99933.56;;;24.64;47.94
59767;BME280;46248;58.364;25.582;2023-07-13T07:58:49;99934.19;;;24.66;48.20
59767;BME280;46248;58.364;25.582;2023-07-13T08:02:14;99934.31;;;24.73;48.75
59767;BME280;46248;58.364;25.582;2023-07-13T08:05:56;99934.84;;;24.68;48.89
59767;BME280;46248;58.364;25.582;2023-07-13T08:09:39;99931.06;;;24.77;49.06
59767;BME280;46248;58.364;25.582;2023-07-13T08:13:01;99932.25;;;24.75;48.57
59767;BME280;46248;58.364;25.582;2023-07-13T08:16:26;99933.28;;;24.74;48.51
59767;BME280;46248;58.364;25.582;2023-07-13T08:19:48;99932.75;;;24.63;48.82
59767;BME280;46248;58.364;25.582;2023-07-13T08:23:10;99939.84;;;24.71;48.78
59767;BME280;46248;58.364;25.582;2023-07-13T08:26:33;99931.34;;;24.67;48.90
59767;BME280;46248;58.364;25.582;2023-07-13T08:29:55;99944.81;;;24.74;49.52
59767;BME280;46248;58.364;25.582;2023-07-13T08:33:17;99945.28;;;24.78;48.35
59767;BME280;46248;58.364;25.582;2023-07-13T08:36:39;99947.41;;;24.82;48.30
59767;BME280;46248;58.364;25.582;2023-07-13T08:40:01;99950.91;;;24.83;48.91
59767;BME280;46248;58.364;25.582;2023-07-13T08:43:28;99951.56;;;24.70;47.85
59767;BME280;46248;58.364;25.582;2023-07-13T08:46:53;99957.56;;;24.57;48.17
59767;BME280;46248;58.364;25.582;2023-07-13T08:50:18;99953.34;;;24.40;48.83
59767;BME280;46248;58.364;25.582;2023-07-13T08:53:45;99949.41;;;24.36;49.18
59767;BME280;46248;58.364;25.582;2023-07-13T08:57:12;99957.69;;;24.41;49.65
59767;BME280;46248;58.364;25.582;2023-07-13T09:00:43;99955.53;;;24.59;50.11
59767;BME280;46248;58.364;25.582;2023-07-13T09:04:11;99956.72;;;24.72;49.22
59767;BME280;46248;58.364;25.582;2023-07-13T09:07:44;99951.50;;;24.78;49.65
59767;BME280;46248;58.364;25.582;2023-07-13T09:11:18;99961.63;;;24.83;48.25
59767;BME280;46248;58.364;25.582;2023-07-13T09:14:47;99959.63;;;24.85;48.72
59767;BME280;46248;58.364;25.582;2023-07-13T09:18:16;99972.06;;;24.78;48.21
59767;BME280;46248;58.364;25.582;2023-07-13T09:21:42;99970.59;;;24.75;49.71
59767;BME280;46248;58.364;25.582;2023-07-13T09:25:24;99971.31;;;24.84;49.29
59767;BME280;46248;58.364;25.582;2023-07-13T09:28:51;99975.97;;;24.75;50.15
59767;BME280;46248;58.364;25.582;2023-07-13T09:32:18;99967.97;;;24.52;50.63
59767;BME280;46248;58.364;25.582;2023-07-13T09:35:43;99981.56;;;24.28;51.68
59767;BME280;46248;58.364;25.582;2023-07-13T09:39:12;99968.09;;;24.21;52.34
59767;BME280;46248;58.364;25.582;2023-07-13T09:43:01;99974.31;;;24.36;52.74
59767;BME280;46248;58.364;25.582;2023-07-13T09:46:24;99974.75;;;24.40;52.51
59767;BME280;46248;58.364;25.582;2023-07-13T09:49:46;99984.44;;;24.41;52.53
59767;BME280;46248;58.364;25.582;2023-07-13T09:53:13;99972.59;;;24.43;53.53
59767;BME280;46248;58.364;25.582;2023-07-13T09:56:35;99984.03;;;24.52;52.74
59767;BME280;46248;58.364;25.582;2023-07-13T09:59:58;99978.59;;;24.45;52.76
59767;BME280;46248;58.364;25.582;2023-07-13T10:03:23;99980.72;;;24.50;52.57
59767;BME280;46248;58.364;25.582;2023-07-13T10:06:46;99975.66;;;24.55;52.71
59767;BME280;46248;58.364;25.582;2023-07-13T10:10:16;99988.47;;;24.60;51.75
59767;BME280;46248;58.364;25.582;2023-07-13T10:13:42;99980.72;;;24.50;51.63
59767;BME280;46248;58.364;25.582;2023-07-13T10:17:05;99987.13;;;24.79;51.87
59767;BME280;46248;58.364;25.582;2023-07-13T10:20:30;99986.09;;;24.95;52.95
59767;BME280;46248;58.364;25.582;2023-07-13T10:23:55;99999.06;;;25.21;53.16
59767;BME280;46248;58.364;25.582;2023-07-13T10:27:23;100002.94;;;25.18;51.67
59767;BME280;46248;58.364;25.582;2023-07-13T10:30:48;99999.81;;;25.15;51.76
59767;BME280;46248;58.364;25.582;2023-07-13T10:34:12;100000.44;;;25.17;51.54
59767;BME280;46248;58.364;25.582;2023-07-13T10:37:41;100006.16;;;25.13;53.18
59767;BME280;46248;58.364;25.582;2023-07-13T10:41:06;100010.25;;;25.24;52.24
59767;BME280;46248;58.364;25.582;2023-07-13T10:44:33;99999.81;;;25.15;51.24
59767;BME280;46248;58.364;25.582;2023-07-13T10:47:55;100000.81;;;25.13;52.12
59767;BME280;46248;58.364;25.582;2023-07-13T10:51:18;100014.19;;;25.28;52.56
59767;BME280;46248;58.364;25.582;2023-07-13T10:54:42;100004.84;;;25.54;52.36
59767;BME280;46248;58.364;25.582;2023-07-13T10:58:14;99998.72;;;25.60;50.97
59767;BME280;46248;58.364;25.582;2023-07-13T11:01:48;100006.22;;;25.35;52.05
59767;BME280;46248;58.364;25.582;2023-07-13T11:05:26;100000.97;;;24.97;51.79
59767;BME280;46248;58.364;25.582;2023-07-13T11:08:53;100000.69;;;24.77;53.53
59767;BME280;46248;58.364;25.582;2023-07-13T11:12:28;99997.00;;;24.78;54.24
59767;BME280;46248;58.364;25.582;2023-07-13T11:16:36;100003.63;;;24.67;52.91
59767;BME280;46248;58.364;25.582;2023-07-13T11:20:18;100012.91;;;24.42;54.69
59767;BME280;46248;58.364;25.582;2023-07-13T11:23:43;100008.22;;;24.21;55.65
59767;BME280;46248;58.364;25.582;2023-07-13T11:27:22;100014.72;;;23.95;59.24
59767;BME280;46248;58.364;25.582;2023-07-13T11:30:47;100016.59;;;23.64;60.62
59767;BME280;46248;58.364;25.582;2023-07-13T11:34:13;100034.25;;;23.34;63.21
59767;BME280;46248;58.364;25.582;2023-07-13T11:37:38;100039.16;;;23.05;63.81
59767;BME280;46248;58.364;25.582;2023-07-13T11:41:02;100042.38;;;22.84;66.99
59767;BME280;46248;58.364;25.582;2023-07-13T11:44:28;100051.22;;;22.77;67.72
59767;BME280;46248;58.364;25.582;2023-07-13T11:47:50;100051.94;;;22.54;68.86
59767;BME280;46248;58.364;25.582;2023-07-13T11:51:18;100043.41;;;22.18;77.74
59767;BME280;46248;58.364;25.582;2023-07-13T11:54:48;100058.72;;;22.32;78.13
59767;BME280;46248;58.364;25.582;2023-07-13T11:58:23;100044.91;;;22.29;76.64
59767;BME280;46248;58.364;25.582;2023-07-13T12:01:47;100047.25;;;22.48;75.67
59767;BME280;46248;58.364;25.582;2023-07-13T12:05:14;100052.38;;;22.82;73.37
59767;BME280;46248;58.364;25.582;2023-07-13T12:08:38;100060.56;;;22.89;71.38
59767;BME280;46248;58.364;25.582;2023-07-13T12:12:11;100052.72;;;22.71;72.79
59767;BME280;46248;58.364;25.582;2023-07-13T12:15:38;100066.75;;;22.73;71.40
59767;BME280;46248;58.364;25.582;2023-07-13T12:19:01;100060.75;;;22.79;70.47
59767;BME280;46248;58.364;25.582;2023-07-13T12:22:24;100065.41;;;22.77;70.15
59767;BME280;46248;58.364;25.582;2023-07-13T12:25:46;100062.09;;;22.67;71.30
59767;BME280;46248;58.364;25.582;2023-07-13T12:29:16;100053.72;;;22.54;71.15
59767;BME280;46248;58.364;25.582;2023-07-13T12:32:38;100059.06;;;22.54;70.93
59767;BME280;46248;58.364;25.582;2023-07-13T12:36:02;100060.06;;;22.45;70.81
59767;BME280;46248;58.364;25.582;2023-07-13T12:39:30;100055.75;;;22.35;71.41
59767;BME280;46248;58.364;25.582;2023-07-13T12:42:54;100067.59;;;22.41;70.84
59767;BME280;46248;58.364;25.582;2023-07-13T12:46:19;100052.94;;;22.45;70.36
59767;BME280;46248;58.364;25.582;2023-07-13T12:49:48;100061.91;;;22.69;70.85
59767;BME280;46248;58.364;25.582;2023-07-13T12:53:13;100056.22;;;22.96;70.36
59767;BME280;46248;58.364;25.582;2023-07-13T12:56:35;100056.22;;;22.88;69.95
59767;BME280;46248;58.364;25.582;2023-07-13T12:59:57;100061.06;;;22.84;69.40
59767;BME280;46248;58.364;25.582;2023-07-13T13:03:26;100061.25;;;22.67;70.24
59767;BME280;46248;58.364;25.582;2023-07-13T13:07:01;100054.41;;;22.56;71.02
59767;BME280;46248;58.364;25.582;2023-07-13T13:10:23;100066.25;;;22.53;71.31
59767;BME280;46248;58.364;25.582;2023-07-13T13:13:46;100060.56;;;22.56;71.29
59767;BME280;46248;58.364;25.582;2023-07-13T13:17:16;100062.09;;;22.67;71.75
59767;BME280;46248;58.364;25.582;2023-07-13T13:20:41;100056.41;;;22.70;70.36
59767;BME280;46248;58.364;25.582;2023-07-13T13:24:08;100054.72;;;22.69;71.00
59767;BME280;46248;58.364;25.582;2023-07-13T13:27:30;100064.72;;;22.75;70.07
59767;BME280;46248;58.364;25.582;2023-07-13T13:30:52;100061.38;;;22.90;69.15
59767;BME280;46248;58.364;25.582;2023-07-13T13:34:15;100055.22;;;22.81;69.24
59767;BME280;46248;58.364;25.582;2023-07-13T13:37:39;100056.22;;;22.88;70.04
59767;BME280;46248;58.364;25.582;2023-07-13T13:41:02;100062.06;;;23.00;68.65
59767;BME280;46248;58.364;25.582;2023-07-13T13:44:24;100049.22;;;23.03;68.35
59767;BME280;46248;58.364;25.582;2023-07-13T13:47:46;100045.19;;;22.99;68.06
59767;BME280;46248;58.364;25.582;2023-07-13T13:51:14;100055.88;;;23.07;68.37
59767;BME280;46248;58.364;25.582;2023-07-13T13:54:37;100054.72;;;22.94;69.07
59767;BME280;46248;58.364;25.582;2023-07-13T13:58:01;100057.72;;;22.74;68.65
59767;BME280;46248;58.364;25.582;2023-07-13T14:01:23;100062.41;;;22.56;69.46
59767;BME280;46248;58.364;25.582;2023-07-13T14:04:46;100074.25;;;22.61;69.99
59767;BME280;46248;58.364;25.582;2023-07-13T14:08:11;100065.88;;;22.81;69.51
59767;BME280;46248;58.364;25.582;2023-07-13T14:11:36;100060.19;;;23.08;68.29
59767;BME280;46248;58.364;25.582;2023-07-13T14:14:58;100060.50;;;23.22;67.09
59767;BME280;46248;58.364;25.582;2023-07-13T14:18:19;100070.31;;;23.29;66.53
59767;BME280;46248;58.364;25.582;2023-07-13T14:21:42;100068.47;;;23.38;65.87
59767;BME280;46248;58.364;25.582;2023-07-13T14:25:04;100072.94;;;23.46;65.89
59767;BME280;46248;58.364;25.582;2023-07-13T14:28:27;100065.63;;;23.40;65.91
59767;BME280;46248;58.364;25.582;2023-07-13T14:31:50;100068.44;;;23.46;65.58
59767;BME280;46248;58.364;25.582;2023-07-13T14:35:13;100060.16;;;23.33;64.76
59767;BME280;46248;58.364;25.582;2023-07-13T14:38:36;100067.72;;;23.13;65.93
59767;BME280;46248;58.364;25.582;2023-07-13T14:41:58;100068.53;;;23.14;65.86
59767;BME280;46248;58.364;25.582;2023-07-13T14:45:21;100081.75;;;23.07;66.56
59767;BME280;46248;58.364;25.582;2023-07-13T14:48:43;100079.06;;;22.99;66.09
59767;BME280;46248;58.364;25.582;2023-07-13T14:52:10;100074.91;;;23.04;66.71
59767;BME280;46248;58.364;25.582;2023-07-13T14:55:32;100071.41;;;23.12;65.56
59767;BME280;46248;58.364;25.582;2023-07-13T14:58:55;100073.41;;;23.02;64.79
59767;BME280;46248;58.364;25.582;2023-07-13T15:02:22;100077.91;;;23.01;64.40
59767;BME280;46248;58.364;25.582;2023-07-13T15:05:46;100080.22;;;23.13;64.79
59767;BME280;46248;58.364;25.582;2023-07-13T15:09:08;100090.56;;;23.16;63.43
59767;BME280;46248;58.364;25.582;2023-07-13T15:12:33;100081.06;;;23.13;63.69
59767;BME280;46248;58.364;25.582;2023-07-13T15:15:55;100081.91;;;23.05;64.15
59767;BME280;46248;58.364;25.582;2023-07-13T15:19:19;100074.25;;;22.86;63.28
59767;BME280;46248;58.364;25.582;2023-07-13T15:22:42;100088.06;;;22.90;64.13
59767;BME280;46248;58.364;25.582;2023-07-13T15:26:03;100096.78;;;23.00;63.30
59767;BME280;46248;58.364;25.582;2023-07-13T15:29:27;100090.75;;;23.06;63.75
59767;BME280;46248;58.364;25.582;2023-07-13T15:32:49;100089.94;;;22.97;63.09
59767;BME280;46248;58.364;25.582;2023-07-13T15:36:12;100099.75;;;23.05;63.59
59767;BME280;46248;58.364;25.582;2023-07-13T15:39:34;100099.41;;;23.08;63.31
59767;BME280;46248;58.364;25.582;2023-07-13T15:42:57;100098.25;;;23.11;63.54
59767;BME280;46248;58.364;25.582;2023-07-13T15:46:20;100091.38;;;23.24;62.26
59767;BME280;46248;58.364;25.582;2023-07-13T15:49:42;100098.41;;;23.17;62.45
59767;BME280;46248;58.364;25.582;2023-07-13T15:53:09;100105.09;;;23.21;62.32
59767;BME280;46248;58.364;25.582;2023-07-13T15:56:34;100095.84;;;23.32;60.54
59767;BME280;46248;58.364;25.582;2023-07-13T15:59:57;100103.03;;;23.40;61.11
59767;BME280;46248;58.364;25.582;2023-07-13T16:03:20;100097.53;;;23.33;60.59
59767;BME280;46248;58.364;25.582;2023-07-13T16:06:42;100098.22;;;23.74;59.48
59767;BME280;46248;58.364;25.582;2023-07-13T16:10:08;100103.22;;;24.63;57.24
59767;BME280;46248;58.364;25.582;2023-07-13T16:13:34;100102.63;;;25.13;55.39
59767;BME280;46248;58.364;25.582;2023-07-13T16:16:56;100102.91;;;25.63;53.57
59767;BME280;46248;58.364;25.582;2023-07-13T16:20:18;100096.78;;;25.69;50.64
59767;BME280;46248;58.364;25.582;2023-07-13T16:23:42;100103.16;;;25.68;50.12
59767;BME280;46248;58.364;25.582;2023-07-13T16:27:23;100105.38;;;25.35;51.94
59767;BME280;46248;58.364;25.582;2023-07-13T16:30:47;100110.94;;;25.19;53.38
59767;BME280;46248;58.364;25.582;2023-07-13T16:34:09;100118.41;;;25.23;53.03
59767;BME280;46248;58.364;25.582;2023-07-13T16:37:31;100117.59;;;24.85;53.19
59767;BME280;46248;58.364;25.582;2023-07-13T16:40:55;100116.63;;;24.78;54.08
59767;BME280;46248;58.364;25.582;2023-07-13T16:44:20;100108.84;;;24.91;52.88
59767;BME280;46248;58.364;25.582;2023-07-13T16:47:43;100120.09;;;25.39;51.98
59767;BME280;46248;58.364;25.582;2023-07-13T16:51:07;100136.00;;;25.55;49.17
59767;BME280;46248;58.364;25.582;2023-07-13T16:54:30;100128.59;;;25.57;49.11
59767;BME280;46248;58.364;25.582;2023-07-13T16:57:54;100126.66;;;25.81;48.90
59767;BME280;46248;58.364;25.582;2023-07-13T17:01:20;100118.66;;;26.17;47.49
59767;BME280;46248;58.364;25.582;2023-07-13T17:04:42;100132.06;;;26.17;47.46
59767;BME280;46248;58.364;25.582;2023-07-13T17:08:13;100141.06;;;26.31;46.19
59767;BME280;46248;58.364;25.582;2023-07-13T17:11:35;100132.13;;;26.24;47.18
59767;BME280;46248;58.364;25.582;2023-07-13T17:15:01;100136.22;;;26.05;46.57
59767;BME280;46248;58.364;25.582;2023-07-13T17:18:27;100144.09;;;26.07;47.81
59767;BME280;46248;58.364;25.582;2023-07-13T17:21:57;100147.53;;;26.00;46.58
59767;BME280;46248;58.364;25.582;2023-07-13T17:25:25;100148.97;;;25.81;47.52
59767;BME280;46248;58.364;25.582;2023-07-13T17:28:48;100157.25;;;25.72;46.94
59767;BME280;46248;58.364;25.582;2023-07-13T17:32:15;100150.50;;;25.76;46.95
59767;BME280;46248;58.364;25.582;2023-07-13T17:35:38;100148.94;;;25.67;47.67
59767;BME280;46248;58.364;25.582;2023-07-13T17:39:01;100147.72;;;25.40;46.81
59767;BME280;46248;58.364;25.582;2023-07-13T17:42:24;100158.88;;;25.13;47.91